sensor_id;sensor_type;location;lat;lon;timestamp;temperature;humidity
7028;DHT22;3555;53.248;10.336;2022-11-20T00:00:19;2.80;99.90
7028;DHT22;3555;53.248;10.336;2022-11-20T00:02:46;2.80;99.90
7028;DHT22;3555;53.248;10.336;2022-11-20T00:05:13;2.70;99.90
7028;DHT22;3555;53.248;10.336;2022-11-20T00:07:40;2.50;99.90
7028;DHT22;3555;53.248;10.336;2022-11-20T00:10:09;2.30;99.90
7028;DHT22;3555;53.248;10.336;2022-11-20T00:12:35;2.30;99.90
7028;DHT22;3555;53.248;10.336;2022-11-20T00:15:03;2.10;99.90
7028;DHT22;3555;53.248;10.336;2022-11-20T00:17:30;2.10;99.90
7028;DHT22;3555;53.248;10.336;2022-11-20T00:19:57;2.10;99.90
7028;DHT22;3555;53.248;10.336;2022-11-20T00:22:24;2.10;99.90
7028;DHT22;3555;53.248;10.336;2022-11-20T00:24:50;2.00;99.90
7028;DHT22;3555;53.248;10.336;2022-11-20T00:27:19;2.00;99.90
7028;DHT22;3555;53.248;10.336;2022-11-20T00:29:45;2.10;99.90
7028;DHT22;3555;53.248;10.336;2022-11-20T00:32:12;1.60;99.90
7028;DHT22;3555;53.248;10.336;2022-11-20T00:34:39;1.60;99.90
7028;DHT22;3555;53.248;10.336;2022-11-20T00:37:06;1.50;99.90
7028;DHT22;3555;53.248;10.336;2022-11-20T00:39:33;1.60;99.90
7028;DHT22;3555;53.248;10.336;2022-11-20T00:42:00;1.60;99.90
7028;DHT22;3555;53.248;10.336;2022-11-20T00:44:28;1.70;99.90
7028;DHT22;3555;53.248;10.336;2022-11-20T00:46:55;1.80;99.90
7028;DHT22;3555;53.248;10.336;2022-11-20T00:49:22;1.90;99.90
7028;DHT22;3555;53.248;10.336;2022-11-20T00:51:48;1.90;99.90
7028;DHT22;3555;53.248;10.336;2022-11-20T00:54:15;1.70;99.90
7028;DHT22;3555;53.248;10.336;2022-11-20T00:56:42;1.90;99.90
7028;DHT22;3555;53.248;10.336;2022-11-20T00:59:09;1.90;99.90
7028;DHT22;3555;53.248;10.336;2022-11-20T01:01:37;1.80;99.90
7028;DHT22;3555;53.248;10.336;2022-11-20T01:04:04;1.90;99.90
7028;DHT22;3555;53.248;10.336;2022-11-20T01:06:33;1.90;99.90
7028;DHT22;3555;53.248;10.336;2022-11-20T01:09:01;1.80;99.90
7028;DHT22;3555;53.248;10.336;2022-11-20T01:11:30;1.90;99.90
7028;DHT22;3555;53.248;10.336;2022-11-20T01:13:59;2.00;99.90
7028;DHT22;3555;53.248;10.336;2022-11-20T01:16:28;2.00;99.90
7028;DHT22;3555;53.248;10.336;2022-11-20T01:18:58;1.80;99.90
7028;DHT22;3555;53.248;10.336;2022-11-20T01:21:27;1.80;99.90
7028;DHT22;3555;53.248;10.336;2022-11-20T01:23:54;1.60;99.90
7028;DHT22;3555;53.248;10.336;2022-11-20T01:26:23;1.40;99.90
7028;DHT22;3555;53.248;10.336;2022-11-20T01:28:51;1.40;99.90
7028;DHT22;3555;53.248;10.336;2022-11-20T01:31:19;1.60;99.90
7028;DHT22;3555;53.248;10.336;2022-11-20T01:33:49;1.70;99.90
7028;DHT22;3555;53.248;10.336;2022-11-20T01:36:19;1.80;99.90
7028;DHT22;3555;53.248;10.336;2022-11-20T01:38:46;1.90;99.90
7028;DHT22;3555;53.248;10.336;2022-11-20T01:41:15;2.10;99.90
7028;DHT22;3555;53.248;10.336;2022-11-20T01:43:56;2.20;99.90
7028;DHT22;3555;53.248;10.336;2022-11-20T01:46:23;2.40;99.90
7028;DHT22;3555;53.248;10.336;2022-11-20T01:48:53;2.50;99.90
7028;DHT22;3555;53.248;10.336;2022-11-20T01:51:27;2.50;99.90
7028;DHT22;3555;53.248;10.336;2022-11-20T01:54:00;2.60;99.90
7028;DHT22;3555;53.248;10.336;2022-11-20T01:56:28;2.70;99.90
7028;DHT22;3555;53.248;10.336;2022-11-20T01:58:58;2.70;99.90
7028;DHT22;3555;53.248;10.336;2022-11-20T02:01:26;2.80;99.90
7028;DHT22;3555;53.248;10.336;2022-11-20T02:03:53;2.80;99.90
7028;DHT22;3555;53.248;10.336;2022-11-20T02:06:25;2.80;99.90
7028;DHT22;3555;53.248;10.336;2022-11-20T02:08:52;2.60;99.90
7028;DHT22;3555;53.248;10.336;2022-11-20T02:11:20;2.50;99.90
7028;DHT22;3555;53.248;10.336;2022-11-20T02:13:48;2.50;99.90
7028;DHT22;3555;53.248;10.336;2022-11-20T02:16:17;2.60;99.90
7028;DHT22;3555;53.248;10.336;2022-11-20T02:18:46;2.60;99.90
7028;DHT22;3555;53.248;10.336;2022-11-20T02:21:20;2.40;99.90
7028;DHT22;3555;53.248;10.336;2022-11-20T02:24:09;2.10;99.90
7028;DHT22;3555;53.248;10.336;2022-11-20T02:26:45;2.00;99.90
7028;DHT22;3555;53.248;10.336;2022-11-20T02:29:16;2.10;99.90
7028;DHT22;3555;53.248;10.336;2022-11-20T02:31:45;2.20;99.90
7028;DHT22;3555;53.248;10.336;2022-11-20T02:34:12;2.20;99.90
7028;DHT22;3555;53.248;10.336;2022-11-20T02:36:40;2.30;99.90
7028;DHT22;3555;53.248;10.336;2022-11-20T02:39:10;2.40;99.90
7028;DHT22;3555;53.248;10.336;2022-11-20T02:41:38;2.10;99.90
7028;DHT22;3555;53.248;10.336;2022-11-20T02:44:05;1.80;99.90
7028;DHT22;3555;53.248;10.336;2022-11-20T02:46:33;1.90;99.90
7028;DHT22;3555;53.248;10.336;2022-11-20T02:49:01;1.60;99.90
7028;DHT22;3555;53.248;10.336;2022-11-20T02:51:29;1.60;99.90
7028;DHT22;3555;53.248;10.336;2022-11-20T02:53:56;1.60;99.90
7028;DHT22;3555;53.248;10.336;2022-11-20T02:56:25;1.50;99.90
7028;DHT22;3555;53.248;10.336;2022-11-20T02:58:52;1.50;99.90
7028;DHT22;3555;53.248;10.336;2022-11-20T03:01:19;1.40;99.90
7028;DHT22;3555;53.248;10.336;2022-11-20T03:03:46;1.50;99.90
7028;DHT22;3555;53.248;10.336;2022-11-20T03:06:14;1.60;99.90
7028;DHT22;3555;53.248;10.336;2022-11-20T03:08:41;1.80;99.90
7028;DHT22;3555;53.248;10.336;2022-11-20T03:11:08;1.90;99.90
7028;DHT22;3555;53.248;10.336;2022-11-20T03:13:36;2.00;99.90
7028;DHT22;3555;53.248;10.336;2022-11-20T03:16:08;2.00;99.90
7028;DHT22;3555;53.248;10.336;2022-11-20T03:18:35;2.00;99.90
7028;DHT22;3555;53.248;10.336;2022-11-20T03:21:02;2.10;99.90
7028;DHT22;3555;53.248;10.336;2022-11-20T03:23:31;2.10;99.90
7028;DHT22;3555;53.248;10.336;2022-11-20T03:26:10;2.10;99.90
7028;DHT22;3555;53.248;10.336;2022-11-20T03:28:39;1.90;99.90
7028;DHT22;3555;53.248;10.336;2022-11-20T03:31:08;1.70;99.90
7028;DHT22;3555;53.248;10.336;2022-11-20T03:33:35;1.60;99.90
7028;DHT22;3555;53.248;10.336;2022-11-20T03:36:03;1.70;99.90
7028;DHT22;3555;53.248;10.336;2022-11-20T03:38:31;1.60;99.90
7028;DHT22;3555;53.248;10.336;2022-11-20T03:40:59;1.70;99.90
7028;DHT22;3555;53.248;10.336;2022-11-20T03:43:27;1.60;99.90
7028;DHT22;3555;53.248;10.336;2022-11-20T03:45:55;1.40;99.90
7028;DHT22;3555;53.248;10.336;2022-11-20T03:48:22;1.30;99.90
7028;DHT22;3555;53.248;10.336;2022-11-20T03:50:49;1.50;99.90
7028;DHT22;3555;53.248;10.336;2022-11-20T03:53:16;1.60;99.90
7028;DHT22;3555;53.248;10.336;2022-11-20T03:55:43;1.70;99.90
7028;DHT22;3555;53.248;10.336;2022-11-20T03:58:10;1.70;99.90
7028;DHT22;3555;53.248;10.336;2022-11-20T04:00:39;1.80;99.90
7028;DHT22;3555;53.248;10.336;2022-11-20T04:03:07;1.70;99.90
7028;DHT22;3555;53.248;10.336;2022-11-20T04:05:34;1.70;99.90
7028;DHT22;3555;53.248;10.336;2022-11-20T04:08:01;1.70;99.90
7028;DHT22;3555;53.248;10.336;2022-11-20T04:10:28;1.80;99.90
7028;DHT22;3555;53.248;10.336;2022-11-20T04:12:55;1.80;99.90
7028;DHT22;3555;53.248;10.336;2022-11-20T04:15:22;1.90;99.90
7028;DHT22;3555;53.248;10.336;2022-11-20T04:17:48;2.10;99.90
7028;DHT22;3555;53.248;10.336;2022-11-20T04:20:17;2.10;99.90
7028;DHT22;3555;53.248;10.336;2022-11-20T04:22:44;2.20;99.90
7028;DHT22;3555;53.248;10.336;2022-11-20T04:25:10;2.10;99.90
7028;DHT22;3555;53.248;10.336;2022-11-20T04:27:37;1.90;99.90
7028;DHT22;3555;53.248;10.336;2022-11-20T04:30:05;1.80;99.90
7028;DHT22;3555;53.248;10.336;2022-11-20T04:32:32;1.60;99.90
7028;DHT22;3555;53.248;10.336;2022-11-20T04:34:59;1.50;99.90
7028;DHT22;3555;53.248;10.336;2022-11-20T04:37:27;1.30;99.90
7028;DHT22;3555;53.248;10.336;2022-11-20T04:39:54;1.30;99.90
7028;DHT22;3555;53.248;10.336;2022-11-20T04:42:21;1.30;99.90
7028;DHT22;3555;53.248;10.336;2022-11-20T04:44:57;1.30;99.90
7028;DHT22;3555;53.248;10.336;2022-11-20T04:47:24;1.30;99.90
7028;DHT22;3555;53.248;10.336;2022-11-20T04:49:51;1.30;99.90
7028;DHT22;3555;53.248;10.336;2022-11-20T04:52:18;1.30;99.90
7028;DHT22;3555;53.248;10.336;2022-11-20T04:54:46;1.20;99.90
7028;DHT22;3555;53.248;10.336;2022-11-20T04:57:14;1.20;99.90
7028;DHT22;3555;53.248;10.336;2022-11-20T04:59:41;1.30;99.90
7028;DHT22;3555;53.248;10.336;2022-11-20T05:02:09;1.20;99.90
7028;DHT22;3555;53.248;10.336;2022-11-20T05:04:35;1.30;99.90
7028;DHT22;3555;53.248;10.336;2022-11-20T05:07:02;1.50;99.90
7028;DHT22;3555;53.248;10.336;2022-11-20T05:09:30;2.10;99.90
7028;DHT22;3555;53.248;10.336;2022-11-20T05:11:58;1.60;99.90
7028;DHT22;3555;53.248;10.336;2022-11-20T05:14:25;1.70;99.90
7028;DHT22;3555;53.248;10.336;2022-11-20T05:16:52;1.70;99.90
7028;DHT22;3555;53.248;10.336;2022-11-20T05:19:18;1.60;99.90
7028;DHT22;3555;53.248;10.336;2022-11-20T05:21:46;1.70;99.90
7028;DHT22;3555;53.248;10.336;2022-11-20T05:24:13;1.70;99.90
7028;DHT22;3555;53.248;10.336;2022-11-20T05:26:39;1.60;99.90
7028;DHT22;3555;53.248;10.336;2022-11-20T05:29:10;1.70;99.90
7028;DHT22;3555;53.248;10.336;2022-11-20T05:31:39;1.70;99.90
7028;DHT22;3555;53.248;10.336;2022-11-20T05:34:06;1.80;99.90
7028;DHT22;3555;53.248;10.336;2022-11-20T05:36:33;1.70;99.90
7028;DHT22;3555;53.248;10.336;2022-11-20T05:39:00;1.70;99.90
7028;DHT22;3555;53.248;10.336;2022-11-20T05:41:27;1.70;99.90
7028;DHT22;3555;53.248;10.336;2022-11-20T05:43:56;1.60;99.90
7028;DHT22;3555;53.248;10.336;2022-11-20T05:46:24;1.70;99.90
7028;DHT22;3555;53.248;10.336;2022-11-20T05:48:51;1.50;99.90
7028;DHT22;3555;53.248;10.336;2022-11-20T05:51:19;1.40;99.90
7028;DHT22;3555;53.248;10.336;2022-11-20T05:53:46;1.50;99.90
7028;DHT22;3555;53.248;10.336;2022-11-20T05:56:15;1.60;99.90
7028;DHT22;3555;53.248;10.336;2022-11-20T05:58:42;1.60;99.90
7028;DHT22;3555;53.248;10.336;2022-11-20T06:01:11;1.80;99.90
7028;DHT22;3555;53.248;10.336;2022-11-20T06:03:40;1.80;99.90
7028;DHT22;3555;53.248;10.336;2022-11-20T06:06:08;1.80;99.90
7028;DHT22;3555;53.248;10.336;2022-11-20T06:08:35;1.60;99.90
7028;DHT22;3555;53.248;10.336;2022-11-20T06:11:06;1.60;99.90
7028;DHT22;3555;53.248;10.336;2022-11-20T06:13:33;1.60;99.90
7028;DHT22;3555;53.248;10.336;2022-11-20T06:16:00;1.70;99.90
7028;DHT22;3555;53.248;10.336;2022-11-20T06:18:30;1.80;99.90
7028;DHT22;3555;53.248;10.336;2022-11-20T06:21:04;1.80;99.90
7028;DHT22;3555;53.248;10.336;2022-11-20T06:23:31;1.70;99.90
7028;DHT22;3555;53.248;10.336;2022-11-20T06:26:01;1.60;99.90
7028;DHT22;3555;53.248;10.336;2022-11-20T06:28:29;1.50;99.90
7028;DHT22;3555;53.248;10.336;2022-11-20T06:30:56;1.50;99.90
7028;DHT22;3555;53.248;10.336;2022-11-20T06:33:22;1.70;99.90
7028;DHT22;3555;53.248;10.336;2022-11-20T06:35:49;1.40;99.90
7028;DHT22;3555;53.248;10.336;2022-11-20T06:38:18;1.50;99.90
7028;DHT22;3555;53.248;10.336;2022-11-20T06:40:45;1.40;99.90
7028;DHT22;3555;53.248;10.336;2022-11-20T06:43:12;1.40;99.90
7028;DHT22;3555;53.248;10.336;2022-11-20T06:45:38;1.30;99.90
7028;DHT22;3555;53.248;10.336;2022-11-20T06:48:05;1.20;99.90
7028;DHT22;3555;53.248;10.336;2022-11-20T06:50:32;1.10;99.90
7028;DHT22;3555;53.248;10.336;2022-11-20T06:53:01;1.20;99.90
7028;DHT22;3555;53.248;10.336;2022-11-20T06:55:30;1.10;99.90
7028;DHT22;3555;53.248;10.336;2022-11-20T06:57:57;1.10;99.90
7028;DHT22;3555;53.248;10.336;2022-11-20T07:00:24;1.30;99.90
7028;DHT22;3555;53.248;10.336;2022-11-20T07:02:51;1.40;99.90
7028;DHT22;3555;53.248;10.336;2022-11-20T07:05:18;1.40;99.90
7028;DHT22;3555;53.248;10.336;2022-11-20T07:07:45;1.40;99.90
7028;DHT22;3555;53.248;10.336;2022-11-20T07:10:12;1.50;99.90
7028;DHT22;3555;53.248;10.336;2022-11-20T07:12:40;1.70;99.90
7028;DHT22;3555;53.248;10.336;2022-11-20T07:15:08;1.80;99.90
7028;DHT22;3555;53.248;10.336;2022-11-20T07:17:34;1.70;99.90
7028;DHT22;3555;53.248;10.336;2022-11-20T07:20:01;1.70;99.90
7028;DHT22;3555;53.248;10.336;2022-11-20T07:22:28;1.80;99.90
7028;DHT22;3555;53.248;10.336;2022-11-20T07:24:55;1.70;99.90
7028;DHT22;3555;53.248;10.336;2022-11-20T07:27:22;1.70;99.90
7028;DHT22;3555;53.248;10.336;2022-11-20T07:29:50;1.40;99.90
7028;DHT22;3555;53.248;10.336;2022-11-20T07:32:17;1.40;99.90
7028;DHT22;3555;53.248;10.336;2022-11-20T07:34:44;1.20;99.90
7028;DHT22;3555;53.248;10.336;2022-11-20T07:37:11;1.10;99.90
7028;DHT22;3555;53.248;10.336;2022-11-20T07:39:38;1.20;99.90
7028;DHT22;3555;53.248;10.336;2022-11-20T07:42:06;1.10;99.90
7028;DHT22;3555;53.248;10.336;2022-11-20T07:44:32;1.10;99.90
7028;DHT22;3555;53.248;10.336;2022-11-20T07:47:01;1.20;99.90
7028;DHT22;3555;53.248;10.336;2022-11-20T07:49:28;1.30;99.90
7028;DHT22;3555;53.248;10.336;2022-11-20T07:51:55;1.30;99.90
7028;DHT22;3555;53.248;10.336;2022-11-20T07:54:22;1.20;99.90
7028;DHT22;3555;53.248;10.336;2022-11-20T07:56:49;1.20;99.90
7028;DHT22;3555;53.248;10.336;2022-11-20T07:59:16;1.20;99.90
7028;DHT22;3555;53.248;10.336;2022-11-20T08:01:43;1.20;99.90
7028;DHT22;3555;53.248;10.336;2022-11-20T08:04:11;1.30;99.90
7028;DHT22;3555;53.248;10.336;2022-11-20T08:06:39;1.30;99.90
7028;DHT22;3555;53.248;10.336;2022-11-20T08:09:06;1.50;99.90
7028;DHT22;3555;53.248;10.336;2022-11-20T08:11:33;1.60;99.90
7028;DHT22;3555;53.248;10.336;2022-11-20T08:14:17;1.80;99.90
7028;DHT22;3555;53.248;10.336;2022-11-20T08:16:45;2.00;99.90
7028;DHT22;3555;53.248;10.336;2022-11-20T08:19:15;2.10;99.90
7028;DHT22;3555;53.248;10.336;2022-11-20T08:21:42;2.20;99.90
7028;DHT22;3555;53.248;10.336;2022-11-20T08:24:10;2.20;99.90
7028;DHT22;3555;53.248;10.336;2022-11-20T08:26:38;2.30;99.90
7028;DHT22;3555;53.248;10.336;2022-11-20T08:29:05;2.30;99.90
7028;DHT22;3555;53.248;10.336;2022-11-20T08:31:33;2.40;99.90
7028;DHT22;3555;53.248;10.336;2022-11-20T08:33:59;2.60;99.90
7028;DHT22;3555;53.248;10.336;2022-11-20T08:36:28;2.90;99.90
7028;DHT22;3555;53.248;10.336;2022-11-20T08:38:55;3.30;99.90
7028;DHT22;3555;53.248;10.336;2022-11-20T08:41:22;3.50;99.90
7028;DHT22;3555;53.248;10.336;2022-11-20T08:43:55;3.60;99.90
7028;DHT22;3555;53.248;10.336;2022-11-20T08:46:23;3.90;99.90
7028;DHT22;3555;53.248;10.336;2022-11-20T08:48:51;4.10;99.90
7028;DHT22;3555;53.248;10.336;2022-11-20T08:51:18;4.20;99.90
7028;DHT22;3555;53.248;10.336;2022-11-20T08:53:46;4.30;99.90
7028;DHT22;3555;53.248;10.336;2022-11-20T08:56:15;4.20;99.90
7028;DHT22;3555;53.248;10.336;2022-11-20T08:58:42;4.20;99.90
7028;DHT22;3555;53.248;10.336;2022-11-20T09:01:09;4.00;99.90
7028;DHT22;3555;53.248;10.336;2022-11-20T09:03:35;3.90;99.90
7028;DHT22;3555;53.248;10.336;2022-11-20T09:06:04;3.80;99.90
7028;DHT22;3555;53.248;10.336;2022-11-20T09:08:31;3.90;99.90
7028;DHT22;3555;53.248;10.336;2022-11-20T09:11:00;4.10;99.90
7028;DHT22;3555;53.248;10.336;2022-11-20T09:13:28;4.20;99.90
7028;DHT22;3555;53.248;10.336;2022-11-20T09:15:55;4.30;99.90
7028;DHT22;3555;53.248;10.336;2022-11-20T09:18:23;4.40;99.90
7028;DHT22;3555;53.248;10.336;2022-11-20T09:20:50;4.40;99.90
7028;DHT22;3555;53.248;10.336;2022-11-20T09:23:17;4.30;99.90
7028;DHT22;3555;53.248;10.336;2022-11-20T09:25:44;4.20;99.90
7028;DHT22;3555;53.248;10.336;2022-11-20T09:28:12;4.30;99.90
7028;DHT22;3555;53.248;10.336;2022-11-20T09:30:39;4.30;99.90
7028;DHT22;3555;53.248;10.336;2022-11-20T09:33:06;4.10;99.90
7028;DHT22;3555;53.248;10.336;2022-11-20T09:35:33;4.20;99.90
7028;DHT22;3555;53.248;10.336;2022-11-20T09:38:04;4.10;99.90
7028;DHT22;3555;53.248;10.336;2022-11-20T09:40:32;4.00;99.90
7028;DHT22;3555;53.248;10.336;2022-11-20T09:43:04;4.00;99.90
7028;DHT22;3555;53.248;10.336;2022-11-20T09:45:54;4.00;99.90
7028;DHT22;3555;53.248;10.336;2022-11-20T09:51:36;3.90;99.90
7028;DHT22;3555;53.248;10.336;2022-11-20T09:54:16;3.90;99.90
7028;DHT22;3555;53.248;10.336;2022-11-20T09:56:46;3.70;99.90
7028;DHT22;3555;53.248;10.336;2022-11-20T09:59:32;3.70;99.90
7028;DHT22;3555;53.248;10.336;2022-11-20T10:02:06;3.60;99.90
7028;DHT22;3555;53.248;10.336;2022-11-20T10:04:34;3.70;99.90
7028;DHT22;3555;53.248;10.336;2022-11-20T10:07:04;3.70;99.90
7028;DHT22;3555;53.248;10.336;2022-11-20T10:09:35;3.80;99.90
7028;DHT22;3555;53.248;10.336;2022-11-20T10:12:12;3.90;99.90
7028;DHT22;3555;53.248;10.336;2022-11-20T10:14:51;4.10;99.90
7028;DHT22;3555;53.248;10.336;2022-11-20T10:17:30;4.30;99.90
7028;DHT22;3555;53.248;10.336;2022-11-20T10:20:16;4.50;99.90
7028;DHT22;3555;53.248;10.336;2022-11-20T10:22:53;4.80;99.90
7028;DHT22;3555;53.248;10.336;2022-11-20T10:25:26;5.30;99.90
7028;DHT22;3555;53.248;10.336;2022-11-20T10:28:19;5.00;99.90
7028;DHT22;3555;53.248;10.336;2022-11-20T10:30:55;5.10;99.90
7028;DHT22;3555;53.248;10.336;2022-11-20T10:33:26;5.00;99.90
7028;DHT22;3555;53.248;10.336;2022-11-20T10:36:00;5.20;99.90
7028;DHT22;3555;53.248;10.336;2022-11-20T10:38:37;5.10;99.90
7028;DHT22;3555;53.248;10.336;2022-11-20T10:41:06;5.00;77.80
7028;DHT22;3555;53.248;10.336;2022-11-20T10:43:54;4.90;1.00
7028;DHT22;3555;53.248;10.336;2022-11-20T10:46:24;5.00;1.00
7028;DHT22;3555;53.248;10.336;2022-11-20T10:48:53;5.00;1.00
7028;DHT22;3555;53.248;10.336;2022-11-20T10:51:30;5.00;1.00
7028;DHT22;3555;53.248;10.336;2022-11-20T10:54:10;5.00;1.00
7028;DHT22;3555;53.248;10.336;2022-11-20T10:56:41;4.90;1.00
7028;DHT22;3555;53.248;10.336;2022-11-20T10:59:29;5.00;1.00
7028;DHT22;3555;53.248;10.336;2022-11-20T11:01:59;5.10;1.00
7028;DHT22;3555;53.248;10.336;2022-11-20T11:04:40;5.10;1.00
7028;DHT22;3555;53.248;10.336;2022-11-20T11:07:13;5.20;1.00
7028;DHT22;3555;53.248;10.336;2022-11-20T11:09:44;5.40;1.00
7028;DHT22;3555;53.248;10.336;2022-11-20T11:12:13;5.30;1.00
7028;DHT22;3555;53.248;10.336;2022-11-20T11:14:46;5.30;1.00
7028;DHT22;3555;53.248;10.336;2022-11-20T11:17:30;5.40;1.00
7028;DHT22;3555;53.248;10.336;2022-11-20T11:20:04;5.70;1.00
7028;DHT22;3555;53.248;10.336;2022-11-20T11:22:33;5.80;1.00
7028;DHT22;3555;53.248;10.336;2022-11-20T11:25:01;6.00;1.00
7028;DHT22;3555;53.248;10.336;2022-11-20T11:27:28;6.20;1.00
7028;DHT22;3555;53.248;10.336;2022-11-20T11:30:12;6.20;27.00
7028;DHT22;3555;53.248;10.336;2022-11-20T11:32:39;6.20;99.90
7028;DHT22;3555;53.248;10.336;2022-11-20T11:35:20;6.20;1.00
7028;DHT22;3555;53.248;10.336;2022-11-20T11:37:48;6.20;63.40
7028;DHT22;3555;53.248;10.336;2022-11-20T11:40:17;6.30;1.00
7028;DHT22;3555;53.248;10.336;2022-11-20T11:42:59;6.50;12.50
7028;DHT22;3555;53.248;10.336;2022-11-20T11:45:26;6.60;99.90
7028;DHT22;3555;53.248;10.336;2022-11-20T11:47:53;6.80;99.90
7028;DHT22;3555;53.248;10.336;2022-11-20T11:50:24;6.90;1.00
7028;DHT22;3555;53.248;10.336;2022-11-20T11:52:58;7.00;99.90
7028;DHT22;3555;53.248;10.336;2022-11-20T11:55:31;6.70;1.00
7028;DHT22;3555;53.248;10.336;2022-11-20T11:58:09;6.60;1.00
7028;DHT22;3555;53.248;10.336;2022-11-20T12:00:41;6.60;1.00
7028;DHT22;3555;53.248;10.336;2022-11-20T12:03:15;6.70;1.00
7028;DHT22;3555;53.248;10.336;2022-11-20T12:05:49;7.00;1.00
7028;DHT22;3555;53.248;10.336;2022-11-20T12:08:23;7.00;5.10
7028;DHT22;3555;53.248;10.336;2022-11-20T12:10:55;6.70;1.00
7028;DHT22;3555;53.248;10.336;2022-11-20T12:13:32;6.80;99.90
7028;DHT22;3555;53.248;10.336;2022-11-20T12:16:02;6.30;1.00
7028;DHT22;3555;53.248;10.336;2022-11-20T12:18:30;6.40;1.00
7028;DHT22;3555;53.248;10.336;2022-11-20T12:21:06;6.60;1.00
7028;DHT22;3555;53.248;10.336;2022-11-20T12:23:44;6.80;99.90
7028;DHT22;3555;53.248;10.336;2022-11-20T12:26:18;6.40;1.00
7028;DHT22;3555;53.248;10.336;2022-11-20T12:29:01;6.10;1.00
7028;DHT22;3555;53.248;10.336;2022-11-20T12:31:42;5.90;99.90
7028;DHT22;3555;53.248;10.336;2022-11-20T12:34:23;5.70;99.90
7028;DHT22;3555;53.248;10.336;2022-11-20T12:37:01;5.80;1.00
7028;DHT22;3555;53.248;10.336;2022-11-20T12:39:34;6.00;1.00
7028;DHT22;3555;53.248;10.336;2022-11-20T12:42:35;6.10;99.90
7028;DHT22;3555;53.248;10.336;2022-11-20T12:45:46;6.20;99.90
7028;DHT22;3555;53.248;10.336;2022-11-20T12:48:41;6.20;99.90
7028;DHT22;3555;53.248;10.336;2022-11-20T12:51:20;6.60;1.00
7028;DHT22;3555;53.248;10.336;2022-11-20T12:54:03;6.10;60.60
7028;DHT22;3555;53.248;10.336;2022-11-20T12:56:40;6.20;13.40
7028;DHT22;3555;53.248;10.336;2022-11-20T12:59:24;6.30;1.00
7028;DHT22;3555;53.248;10.336;2022-11-20T13:02:02;6.30;1.00
7028;DHT22;3555;53.248;10.336;2022-11-20T13:04:55;6.30;1.00
7028;DHT22;3555;53.248;10.336;2022-11-20T13:07:28;6.30;1.00
7028;DHT22;3555;53.248;10.336;2022-11-20T13:09:59;6.80;1.00
7028;DHT22;3555;53.248;10.336;2022-11-20T13:12:31;6.50;99.90
7028;DHT22;3555;53.248;10.336;2022-11-20T13:15:05;6.50;1.00
7028;DHT22;3555;53.248;10.336;2022-11-20T13:17:43;6.40;1.00
7028;DHT22;3555;53.248;10.336;2022-11-20T13:20:15;6.50;1.00
7028;DHT22;3555;53.248;10.336;2022-11-20T13:22:44;6.50;1.00
7028;DHT22;3555;53.248;10.336;2022-11-20T13:25:24;6.60;1.00
7028;DHT22;3555;53.248;10.336;2022-11-20T13:27:51;6.50;1.00
7028;DHT22;3555;53.248;10.336;2022-11-20T13:30:20;6.50;10.10
7028;DHT22;3555;53.248;10.336;2022-11-20T13:32:52;6.50;1.00
7028;DHT22;3555;53.248;10.336;2022-11-20T13:35:30;6.50;99.90
7028;DHT22;3555;53.248;10.336;2022-11-20T13:38:06;6.40;99.90
7028;DHT22;3555;53.248;10.336;2022-11-20T13:40:37;6.40;99.90
7028;DHT22;3555;53.248;10.336;2022-11-20T13:43:11;6.60;99.90
7028;DHT22;3555;53.248;10.336;2022-11-20T13:45:42;6.40;1.00
7028;DHT22;3555;53.248;10.336;2022-11-20T13:48:20;6.40;1.00
7028;DHT22;3555;53.248;10.336;2022-11-20T13:50:59;6.40;1.00
7028;DHT22;3555;53.248;10.336;2022-11-20T13:53:42;6.30;1.00
7028;DHT22;3555;53.248;10.336;2022-11-20T13:56:18;6.20;1.00
7028;DHT22;3555;53.248;10.336;2022-11-20T13:58:58;6.20;1.00
7028;DHT22;3555;53.248;10.336;2022-11-20T14:01:29;6.10;99.90
7028;DHT22;3555;53.248;10.336;2022-11-20T14:03:57;6.10;99.90
7028;DHT22;3555;53.248;10.336;2022-11-20T14:06:27;6.10;99.90
7028;DHT22;3555;53.248;10.336;2022-11-20T14:08:55;6.00;1.00
7028;DHT22;3555;53.248;10.336;2022-11-20T14:11:25;6.10;1.00
7028;DHT22;3555;53.248;10.336;2022-11-20T14:13:55;6.00;99.90
7028;DHT22;3555;53.248;10.336;2022-11-20T14:16:22;6.00;99.90
7028;DHT22;3555;53.248;10.336;2022-11-20T14:18:49;6.10;99.90
7028;DHT22;3555;53.248;10.336;2022-11-20T14:21:24;6.00;99.90
7028;DHT22;3555;53.248;10.336;2022-11-20T14:24:03;5.70;1.00
7028;DHT22;3555;53.248;10.336;2022-11-20T14:26:32;5.70;15.40
7028;DHT22;3555;53.248;10.336;2022-11-20T14:28:59;5.60;1.00
7028;DHT22;3555;53.248;10.336;2022-11-20T14:31:27;5.70;1.00
7028;DHT22;3555;53.248;10.336;2022-11-20T14:33:55;5.60;99.90
7028;DHT22;3555;53.248;10.336;2022-11-20T14:36:24;5.50;99.90
7028;DHT22;3555;53.248;10.336;2022-11-20T14:38:52;5.50;99.90
7028;DHT22;3555;53.248;10.336;2022-11-20T14:41:21;5.50;99.90
7028;DHT22;3555;53.248;10.336;2022-11-20T14:43:52;5.50;1.00
7028;DHT22;3555;53.248;10.336;2022-11-20T14:46:21;5.50;1.00
7028;DHT22;3555;53.248;10.336;2022-11-20T14:48:51;5.40;1.00
7028;DHT22;3555;53.248;10.336;2022-11-20T14:51:29;5.60;1.00
7028;DHT22;3555;53.248;10.336;2022-11-20T14:54:08;5.40;27.90
7028;DHT22;3555;53.248;10.336;2022-11-20T14:56:35;5.40;99.90
7028;DHT22;3555;53.248;10.336;2022-11-20T14:59:03;5.40;99.90
7028;DHT22;3555;53.248;10.336;2022-11-20T15:01:32;5.40;99.90
7028;DHT22;3555;53.248;10.336;2022-11-20T15:04:01;5.30;99.90
7028;DHT22;3555;53.248;10.336;2022-11-20T15:06:28;5.30;1.00
7028;DHT22;3555;53.248;10.336;2022-11-20T15:08:57;5.30;1.00
7028;DHT22;3555;53.248;10.336;2022-11-20T15:11:29;5.30;1.00
7028;DHT22;3555;53.248;10.336;2022-11-20T15:13:57;5.30;99.90
7028;DHT22;3555;53.248;10.336;2022-11-20T15:16:26;5.20;99.90
7028;DHT22;3555;53.248;10.336;2022-11-20T15:18:53;5.20;1.00
7028;DHT22;3555;53.248;10.336;2022-11-20T15:21:21;5.10;99.90
7028;DHT22;3555;53.248;10.336;2022-11-20T15:23:48;5.10;99.90
7028;DHT22;3555;53.248;10.336;2022-11-20T15:26:20;5.10;99.90
7028;DHT22;3555;53.248;10.336;2022-11-20T15:28:48;5.10;76.40
7028;DHT22;3555;53.248;10.336;2022-11-20T15:31:17;5.10;99.90
7028;DHT22;3555;53.248;10.336;2022-11-20T15:33:45;5.00;99.90
7028;DHT22;3555;53.248;10.336;2022-11-20T15:36:12;4.80;99.90
7028;DHT22;3555;53.248;10.336;2022-11-20T15:38:39;4.50;1.00
7028;DHT22;3555;53.248;10.336;2022-11-20T15:41:07;4.20;1.00
7028;DHT22;3555;53.248;10.336;2022-11-20T15:43:34;4.00;1.00
7028;DHT22;3555;53.248;10.336;2022-11-20T15:46:03;3.70;91.20
7028;DHT22;3555;53.248;10.336;2022-11-20T15:48:33;3.60;1.00
7028;DHT22;3555;53.248;10.336;2022-11-20T15:51:05;3.50;1.00
7028;DHT22;3555;53.248;10.336;2022-11-20T15:53:33;3.60;1.00
7028;DHT22;3555;53.248;10.336;2022-11-20T15:56:00;3.50;1.00
7028;DHT22;3555;53.248;10.336;2022-11-20T15:58:27;3.60;1.00
7028;DHT22;3555;53.248;10.336;2022-11-20T16:00:54;3.60;1.00
7028;DHT22;3555;53.248;10.336;2022-11-20T16:03:21;3.30;1.00
7028;DHT22;3555;53.248;10.336;2022-11-20T16:05:48;3.20;1.00
7028;DHT22;3555;53.248;10.336;2022-11-20T16:08:17;3.10;1.00
7028;DHT22;3555;53.248;10.336;2022-11-20T16:10:44;3.00;1.00
7028;DHT22;3555;53.248;10.336;2022-11-20T16:13:15;3.20;1.00
7028;DHT22;3555;53.248;10.336;2022-11-20T16:16:02;3.30;1.00
7028;DHT22;3555;53.248;10.336;2022-11-20T16:18:30;3.40;1.00
7028;DHT22;3555;53.248;10.336;2022-11-20T16:20:58;3.50;1.00
7028;DHT22;3555;53.248;10.336;2022-11-20T16:23:26;3.50;1.00
7028;DHT22;3555;53.248;10.336;2022-11-20T16:25:53;3.30;1.00